Saturday, January 19, 2019, 6:49 PM CST
Back to Local

KC09, Morris, Morris Municipal-james R Washburn Field Airport

Location: Morris, IL, United States Lat: 41.425
Local Time: 6:49 PM CST ( 0:49 GMT) Lon: -88.419
Time Zone: US/Central Elev: 583 ft

Show me the last for .
Show Coded

Time T Td Feel RH Dir Speed Gust Alt SLP Vis Weather Sky Remarks
2019-01-19 18:15 22 18 7 83 350° 10 21 30.02 - 10 OVC018 None
2019-01-19 17:55 23 18 7 81 360° 12 22 30.01 - 10 OVC018 6-hr Min Temp (6pm): 22.6°F
6-hr Max Temp (6pm): 27.5°F
2019-01-19 17:35 23 19 10 82 360° 10 17 30.01 - 10 UP OVC018 None
2019-01-19 17:15 24 19 13 81 10° 10 - 30.00 - 10 UP OVC018 None
2019-01-19 16:55 24 20 11 82 10° 12 17 30.00 - 10 OVC018 None
2019-01-19 16:35 25 20 11 82 10° 12 20 29.99 - 10 UP OVC018 None
2019-01-19 16:15 26 21 12 82 10° 10 17 29.98 - 10 UP OVC018 None
2019-01-19 15:55 26 21 11 80 20° 14 22 29.98 - 10 OVC018 None
2019-01-19 15:35 26 21 12 80 10° 10 22 29.98 - 10 OVC018 None
2019-01-19 15:15 26 21 12 80 20° 12 21 29.96 - 10 OVC018 None
2019-01-19 14:55 26 21 11 80 20° 15 26 29.95 - 10 OVC018 None
2019-01-19 14:35 26 21 10 79 20° 14 29 29.93 - 7 UP OVC018 None
2019-01-19 14:15 27 21 12 79 20° 14 24 29.93 - 7 UP OVC018 None
2019-01-19 13:55 27 22 11 81 20° 15 25 29.93 - 10 OVC018 None
2019-01-19 13:35 27 22 12 82 20° 14 22 29.94 - 10 OVC016 None
2019-01-19 13:15 27 22 14 80 30° 12 20 29.95 - 10 OVC016 None
2019-01-19 12:55 27 22 13 81 30° 10 21 29.95 - 10 OVC016 None
2019-01-19 12:35 27 22 14 81 30° 13 20 29.96 - 10 OVC016 None
2019-01-19 12:15 28 23 15 84 30° 9 17 29.97 - 10 OVC016 None
2019-01-19 11:55 28 23 14 82 40° 15 20 29.98 - 10 OVC016 6-hr Precip Total (12pm): 0.06"
6-hr Min Temp (12pm): 27.0°F
6-hr Max Temp (12pm): 28.4°F
2019-01-19 11:35 28 24 15 84 30° 10 18 30.00 - 10 UP OVC014 None
2019-01-19 11:15 28 24 16 84 30° 12 18 30.00 - 5 -RA OVC014 None
2019-01-19 10:55 28 24 14 85 40° 9 20 30.00 - 7 UP SCT014 BKN029 OVC050 1-hr Precip Total: 0.01"
2019-01-19 10:35 27 25 14 90 40° 9 20 30.00 - 1 -SN SCT009 BKN017 OVC029 1-hr Precip Total: 0.01"
2019-01-19 10:15 27 25 14 91 30° 9 17 30.00 - 0 SN BKN011 OVC017 None
2019-01-19 09:55 27 25 14 90 30° 14 20 29.99 - 0 -SN OVC016 None
2019-01-19 09:35 28 25 15 89 30° 9 17 30.00 - 1 -SN OVC016 None
2019-01-19 09:15 28 25 14 88 40° 10 21 30.00 - 2 -SN OVC014 None
2019-01-19 08:55 28 26 14 92 30° 13 22 29.98 - 3 -SN OVC012 1-hr Precip Total: 0.01"
6-hr Precip Total (9am): 0.05"
2019-01-19 08:35 28 26 14 92 40° 13 20 29.97 - 1 -SN OVC012 1-hr Precip Total: 0.01"
2019-01-19 08:15 28 26 16 93 40° 9 16 29.98 - 1 -SN OVC010 1-hr Precip Total: 0.01"
2019-01-19 07:55 28 27 19 94 40° 9 - 29.97 - 1 -SN OVC012 1-hr Precip Total: 0.01"
2019-01-19 07:35 28 27 16 94 40° 10 17 29.97 - 1 -SN BKN009 OVC012 1-hr Precip Total: 0.01"
2019-01-19 07:15 28 27 14 93 40° 12 23 29.97 - 1 -SN BKN009 BKN012 OVC020 1-hr Precip Total: 0.01"
2019-01-19 06:55 28 27 16 95 40° 10 17 29.98 - 1 -SN BKN009 BKN012 OVC017 1-hr Precip Total: 0.03"
2019-01-19 06:35 28 27 20 96 40° 8 - 29.98 - 1 -SN BKN009 OVC015 1-hr Precip Total: 0.02"
2019-01-19 06:15 28 28 19 97 40° 9 - 29.98 - 1 SN BKN006 OVC012 1-hr Precip Total: 0.01"
2019-01-19 05:55 28 28 21 97 40° 7 - 29.98 - 0 SN OVC008 1-hr Precip Total: 0.02"
6-hr Precip Total (6am): 0.13"
24-hr Precip Total (6am): 0.13"
6-hr Min Temp (6am): 28.2°F
6-hr Max Temp (6am): 30.0°F
2019-01-19 05:35 28 28 20 96 40° 8 - 29.97 - 0 SN OVC006 1-hr Precip Total: 0.01"
2019-01-19 05:15 28 28 22 96 40° 6 - 29.96 - 1 SN BKN006 OVC012 None
2019-01-19 04:55 28 28 21 97 40° 7 - 29.97 - 0 SN SCT003 BKN006 OVC012 1-hr Precip Total: 0.06"
2019-01-19 04:35 28 28 20 97 40° 8 - 29.97 - 0 SN OVC010 1-hr Precip Total: 0.04"
2019-01-19 04:15 28 28 21 98 50° 7 - 29.97 - 0 SN SCT004 OVC010 1-hr Precip Total: 0.02"
2019-01-19 03:55 28 28 20 97 60° 8 - 29.97 - 0 SN OVC006 1-hr Precip Total: 0.04"
2019-01-19 03:35 29 28 22 97 50° 7 - 29.97 - 0 +SN OVC006 1-hr Precip Total: 0.02"
2019-01-19 03:15 29 28 22 96 60° 7 - 29.98 - 0 SN OVC006 1-hr Precip Total: 0.01"
2019-01-19 02:55 29 28 16 94 60° 12 21 29.98 - 1 SN OVC010 1-hr Precip Total: 0.01"
6-hr Precip Total (3am): 0.01"
2019-01-19 02:35 30 28 16 90 70° 15 23 29.99 - 2 -SN OVC012 1-hr Precip Total: 0.01"
2019-01-19 02:15 30 28 17 90 70° 16 22 30.00 - 2 -SN OVC016 None
2019-01-19 01:55 30 27 20 89 70° 13 - 30.01 - 4 -SN OVC018 None
2019-01-19 01:35 30 27 17 88 70° 13 21 30.01 - 10 UP OVC018 None
2019-01-19 01:15 30 27 18 88 70° 12 17 30.02 - 10 OVC020 None
2019-01-19 00:55 30 27 17 88 70° 13 20 30.03 - 10 OVC020 None
2019-01-19 00:35 30 27 17 87 60° 14 20 30.04 - 10 OVC022 None
2019-01-19 00:15 30 27 18 87 70° 14 18 30.04 - 10 OVC022 None
2019-01-18 23:55 30 27 18 86 60° 12 20 30.06 - 5 UP OVC022 6-hr Min Temp (12am): 30.0°F
6-hr Max Temp (12am): 30.9°F
24-hr Min Temp (12am): 28.9°F
24-hr Max Temp (12am): 32.0°F
2019-01-18 23:35 30 26 22 85 60° 8 - 30.06 - 10 OVC022 None
2019-01-18 23:15 30 26 23 83 50° 7 - 30.08 - 10 OVC022 None
2019-01-18 22:55 30 26 23 83 60° 8 - 30.08 - 10 OVC022 None
2019-01-18 22:35 30 26 18 83 60° 12 17 30.06 - 10 OVC022 None
2019-01-18 22:15 30 25 17 80 60° 15 21 30.05 - 10 OVC022 None
2019-01-18 21:55 31 25 18 80 70° 15 22 30.05 - 10 OVC022 None
2019-01-18 21:35 31 26 18 81 70° 14 20 30.07 - 10 OVC022 None
2019-01-18 21:15 31 26 20 81 80° 15 - 30.07 - 10 OVC020 None
2019-01-18 20:55 31 26 19 81 90° 13 18 30.09 - 10 OVC020 None
2019-01-18 20:35 31 26 20 83 80° 14 - 30.10 - 10 OVC020 None
2019-01-18 20:15 31 27 18 84 90° 14 20 30.10 - 10 OVC016 None
2019-01-18 19:55 31 26 20 84 90° 14 - 30.10 - 10 OVC016 None
2019-01-18 19:35 31 26 20 83 90° 14 - 30.10 - 10 OVC016 None
2019-01-18 19:15 31 26 18 81 80° 13 20 30.10 - 10 OVC016 None
2019-01-18 18:55 31 26 19 82 80° 17 - 30.09 - 10 OVC016 None

Support USWX by starting your Amazon purchase here.